ESOE/ORB METAR and TAF weather

Enter ICAO airport designator
Station Type Date Time Source
ESOE METAR 2023/03/27 10:20 UTC NOAA

ESOE 271020Z AUTO 31010KT 9999 NCD M02/M07 Q1007


Station Type Date Time Source
ESOE Decoded METAR 2023/03/27 10:20 UTC NOAA

Orebro Private , Sweden (ESOE) 59-14N 015-03E
Mar 27, 2023 - 06:20 AM EDT / 2023.03.27 1020 UTC
Wind: from the NW (310 degrees) at 12 MPH (10 KT):0
Visibility: greater than 7 mile(s):0
Temperature: 28 F (-2 C)
Windchill: 17 F (-8 C):1
Dew Point: 19 F (-7 C)
Relative Humidity: 68%
Pressure (altimeter): 29.74 in. Hg (1007 hPa)
ob: ESOE 271020Z AUTO 31010KT 9999 NCD M02/M07 Q1007
cycle: 10

Station Type Date Time Source
ESOE TAF 2022/03/13 08:53 UTC NOAA

TAF ESOE 130730Z 1308/1321 VRB03KT CAVOK

Example: see airport list